sensor_id;sensor_type;location;lat;lon;timestamp;temperature;humidity
13856;DHT22;6998;53.608;9.958;2023-06-10T00:02:13;15.20;99.90
13856;DHT22;6998;53.608;9.958;2023-06-10T00:04:42;15.10;99.90
13856;DHT22;6998;53.608;9.958;2023-06-10T00:07:09;15.00;99.90
13856;DHT22;6998;53.608;9.958;2023-06-10T00:09:35;14.90;99.90
13856;DHT22;6998;53.608;9.958;2023-06-10T00:12:03;14.80;99.90
13856;DHT22;6998;53.608;9.958;2023-06-10T00:14:30;14.80;99.90
13856;DHT22;6998;53.608;9.958;2023-06-10T00:16:58;14.80;99.90
13856;DHT22;6998;53.608;9.958;2023-06-10T00:19:25;14.70;99.90
13856;DHT22;6998;53.608;9.958;2023-06-10T00:21:55;14.70;99.90
13856;DHT22;6998;53.608;9.958;2023-06-10T00:24:25;14.60;99.90
13856;DHT22;6998;53.608;9.958;2023-06-10T00:26:52;14.60;99.90
13856;DHT22;6998;53.608;9.958;2023-06-10T00:29:19;14.50;99.90
13856;DHT22;6998;53.608;9.958;2023-06-10T00:31:46;14.50;99.90
13856;DHT22;6998;53.608;9.958;2023-06-10T00:34:14;14.50;99.90
13856;DHT22;6998;53.608;9.958;2023-06-10T00:36:41;14.40;99.90
13856;DHT22;6998;53.608;9.958;2023-06-10T00:39:08;14.40;99.90
13856;DHT22;6998;53.608;9.958;2023-06-10T00:41:35;14.40;99.90
13856;DHT22;6998;53.608;9.958;2023-06-10T00:44:02;14.40;99.90
13856;DHT22;6998;53.608;9.958;2023-06-10T00:46:29;14.30;99.90
13856;DHT22;6998;53.608;9.958;2023-06-10T00:48:57;14.30;99.90
13856;DHT22;6998;53.608;9.958;2023-06-10T00:51:25;14.20;99.90
13856;DHT22;6998;53.608;9.958;2023-06-10T00:53:56;14.30;99.90
13856;DHT22;6998;53.608;9.958;2023-06-10T00:56:23;14.30;99.90
13856;DHT22;6998;53.608;9.958;2023-06-10T00:58:54;14.20;99.90
13856;DHT22;6998;53.608;9.958;2023-06-10T01:01:21;14.20;99.90
13856;DHT22;6998;53.608;9.958;2023-06-10T01:03:47;14.10;99.90
13856;DHT22;6998;53.608;9.958;2023-06-10T01:06:21;14.10;99.90
13856;DHT22;6998;53.608;9.958;2023-06-10T01:08:56;14.10;99.90
13856;DHT22;6998;53.608;9.958;2023-06-10T01:11:28;14.10;99.90
13856;DHT22;6998;53.608;9.958;2023-06-10T01:13:57;14.10;99.90
13856;DHT22;6998;53.608;9.958;2023-06-10T01:16:25;14.00;99.90
13856;DHT22;6998;53.608;9.958;2023-06-10T01:18:52;14.10;99.90
13856;DHT22;6998;53.608;9.958;2023-06-10T01:21:22;14.10;99.90
13856;DHT22;6998;53.608;9.958;2023-06-10T01:23:51;14.10;99.90
13856;DHT22;6998;53.608;9.958;2023-06-10T01:26:20;14.00;99.90
13856;DHT22;6998;53.608;9.958;2023-06-10T01:28:52;14.00;99.90
13856;DHT22;6998;53.608;9.958;2023-06-10T01:31:31;13.90;99.90
13856;DHT22;6998;53.608;9.958;2023-06-10T01:34:03;13.80;99.90
13856;DHT22;6998;53.608;9.958;2023-06-10T01:36:35;13.90;99.90
13856;DHT22;6998;53.608;9.958;2023-06-10T01:39:02;13.90;99.90
13856;DHT22;6998;53.608;9.958;2023-06-10T01:41:31;13.80;99.90
13856;DHT22;6998;53.608;9.958;2023-06-10T01:43:59;13.70;99.90
13856;DHT22;6998;53.608;9.958;2023-06-10T01:46:26;13.70;99.90
13856;DHT22;6998;53.608;9.958;2023-06-10T01:48:53;13.70;99.90
13856;DHT22;6998;53.608;9.958;2023-06-10T01:51:19;13.70;99.90
13856;DHT22;6998;53.608;9.958;2023-06-10T01:53:48;13.60;99.90
13856;DHT22;6998;53.608;9.958;2023-06-10T01:56:14;13.60;99.90
13856;DHT22;6998;53.608;9.958;2023-06-10T01:58:44;13.60;99.90
13856;DHT22;6998;53.608;9.958;2023-06-10T02:01:11;13.50;99.90
13856;DHT22;6998;53.608;9.958;2023-06-10T02:03:38;13.50;99.90
13856;DHT22;6998;53.608;9.958;2023-06-10T02:06:05;13.50;99.90
13856;DHT22;6998;53.608;9.958;2023-06-10T02:08:32;13.50;99.90
13856;DHT22;6998;53.608;9.958;2023-06-10T02:11:00;13.50;99.90
13856;DHT22;6998;53.608;9.958;2023-06-10T02:13:27;13.60;99.90
13856;DHT22;6998;53.608;9.958;2023-06-10T02:15:55;13.60;99.90
13856;DHT22;6998;53.608;9.958;2023-06-10T02:18:22;13.60;99.90
13856;DHT22;6998;53.608;9.958;2023-06-10T02:20:49;13.50;99.90
13856;DHT22;6998;53.608;9.958;2023-06-10T02:23:16;13.50;99.90
13856;DHT22;6998;53.608;9.958;2023-06-10T02:25:42;13.50;99.90
13856;DHT22;6998;53.608;9.958;2023-06-10T02:28:11;13.50;99.90
13856;DHT22;6998;53.608;9.958;2023-06-10T02:30:39;13.40;99.90
13856;DHT22;6998;53.608;9.958;2023-06-10T02:33:06;13.30;99.90
13856;DHT22;6998;53.608;9.958;2023-06-10T02:35:35;13.30;99.90
13856;DHT22;6998;53.608;9.958;2023-06-10T02:38:02;13.40;99.90
13856;DHT22;6998;53.608;9.958;2023-06-10T02:40:29;13.40;99.90
13856;DHT22;6998;53.608;9.958;2023-06-10T02:42:56;13.30;99.90
13856;DHT22;6998;53.608;9.958;2023-06-10T02:45:25;13.30;99.90
13856;DHT22;6998;53.608;9.958;2023-06-10T02:47:51;13.40;99.90
13856;DHT22;6998;53.608;9.958;2023-06-10T02:50:18;13.30;99.90
13856;DHT22;6998;53.608;9.958;2023-06-10T02:52:45;13.40;99.90
13856;DHT22;6998;53.608;9.958;2023-06-10T02:55:12;13.40;99.90
13856;DHT22;6998;53.608;9.958;2023-06-10T02:57:39;13.30;99.90
13856;DHT22;6998;53.608;9.958;2023-06-10T03:00:07;13.30;99.90
13856;DHT22;6998;53.608;9.958;2023-06-10T03:02:38;13.30;99.90
13856;DHT22;6998;53.608;9.958;2023-06-10T03:05:05;13.40;99.90
13856;DHT22;6998;53.608;9.958;2023-06-10T03:07:35;13.30;99.90
13856;DHT22;6998;53.608;9.958;2023-06-10T03:10:02;13.30;99.90
13856;DHT22;6998;53.608;9.958;2023-06-10T03:12:29;13.30;99.90
13856;DHT22;6998;53.608;9.958;2023-06-10T03:14:56;13.30;99.90
13856;DHT22;6998;53.608;9.958;2023-06-10T03:17:23;13.30;99.90
13856;DHT22;6998;53.608;9.958;2023-06-10T03:19:51;13.30;99.90
13856;DHT22;6998;53.608;9.958;2023-06-10T03:22:18;13.40;99.90
13856;DHT22;6998;53.608;9.958;2023-06-10T03:24:45;13.40;99.90
13856;DHT22;6998;53.608;9.958;2023-06-10T03:27:15;13.50;99.90
13856;DHT22;6998;53.608;9.958;2023-06-10T03:29:42;13.50;99.90
13856;DHT22;6998;53.608;9.958;2023-06-10T03:32:09;13.50;99.90
13856;DHT22;6998;53.608;9.958;2023-06-10T03:34:35;13.50;99.90
13856;DHT22;6998;53.608;9.958;2023-06-10T03:37:04;13.40;99.90
13856;DHT22;6998;53.608;9.958;2023-06-10T03:39:32;13.50;99.90
13856;DHT22;6998;53.608;9.958;2023-06-10T03:41:58;13.50;99.90
13856;DHT22;6998;53.608;9.958;2023-06-10T03:44:25;13.50;99.90
13856;DHT22;6998;53.608;9.958;2023-06-10T03:46:53;13.50;99.90
13856;DHT22;6998;53.608;9.958;2023-06-10T03:49:20;13.50;99.90
13856;DHT22;6998;53.608;9.958;2023-06-10T03:51:47;13.50;99.90
13856;DHT22;6998;53.608;9.958;2023-06-10T03:54:15;13.50;99.90
13856;DHT22;6998;53.608;9.958;2023-06-10T03:56:42;13.50;99.90
13856;DHT22;6998;53.608;9.958;2023-06-10T03:59:08;13.50;99.90
13856;DHT22;6998;53.608;9.958;2023-06-10T04:01:35;13.60;99.90
13856;DHT22;6998;53.608;9.958;2023-06-10T04:04:03;13.60;99.90
13856;DHT22;6998;53.608;9.958;2023-06-10T04:06:30;13.60;99.90
13856;DHT22;6998;53.608;9.958;2023-06-10T04:08:57;13.60;99.90
13856;DHT22;6998;53.608;9.958;2023-06-10T04:11:25;13.60;99.90
13856;DHT22;6998;53.608;9.958;2023-06-10T04:13:52;13.70;99.90
13856;DHT22;6998;53.608;9.958;2023-06-10T04:16:19;13.70;99.90
13856;DHT22;6998;53.608;9.958;2023-06-10T04:18:46;13.80;99.90
13856;DHT22;6998;53.608;9.958;2023-06-10T04:21:13;13.90;99.90
13856;DHT22;6998;53.608;9.958;2023-06-10T04:23:40;13.80;99.90
13856;DHT22;6998;53.608;9.958;2023-06-10T04:26:07;13.80;99.90
13856;DHT22;6998;53.608;9.958;2023-06-10T04:28:35;13.90;99.90
13856;DHT22;6998;53.608;9.958;2023-06-10T04:31:04;14.00;99.90
13856;DHT22;6998;53.608;9.958;2023-06-10T04:33:31;14.10;99.90
13856;DHT22;6998;53.608;9.958;2023-06-10T04:35:58;14.20;99.90
13856;DHT22;6998;53.608;9.958;2023-06-10T04:38:25;14.20;99.90
13856;DHT22;6998;53.608;9.958;2023-06-10T04:40:52;14.30;99.90
13856;DHT22;6998;53.608;9.958;2023-06-10T04:43:20;14.30;99.90
13856;DHT22;6998;53.608;9.958;2023-06-10T04:45:50;14.40;99.90
13856;DHT22;6998;53.608;9.958;2023-06-10T04:48:17;14.40;99.90
13856;DHT22;6998;53.608;9.958;2023-06-10T04:50:43;14.50;99.90
13856;DHT22;6998;53.608;9.958;2023-06-10T04:53:10;14.60;99.90
13856;DHT22;6998;53.608;9.958;2023-06-10T04:55:37;14.70;99.90
13856;DHT22;6998;53.608;9.958;2023-06-10T04:58:04;14.90;99.90
13856;DHT22;6998;53.608;9.958;2023-06-10T05:00:30;15.00;99.90
13856;DHT22;6998;53.608;9.958;2023-06-10T05:02:59;15.10;99.90
13856;DHT22;6998;53.608;9.958;2023-06-10T05:05:25;15.10;99.90
13856;DHT22;6998;53.608;9.958;2023-06-10T05:07:52;15.20;99.90
13856;DHT22;6998;53.608;9.958;2023-06-10T05:10:19;15.30;99.90
13856;DHT22;6998;53.608;9.958;2023-06-10T05:12:46;15.40;99.90
13856;DHT22;6998;53.608;9.958;2023-06-10T05:15:13;15.40;99.90
13856;DHT22;6998;53.608;9.958;2023-06-10T05:17:39;15.40;99.90
13856;DHT22;6998;53.608;9.958;2023-06-10T05:20:08;15.50;99.90
13856;DHT22;6998;53.608;9.958;2023-06-10T05:22:35;15.50;99.90
13856;DHT22;6998;53.608;9.958;2023-06-10T05:25:03;15.50;99.90
13856;DHT22;6998;53.608;9.958;2023-06-10T05:27:30;15.40;99.90
13856;DHT22;6998;53.608;9.958;2023-06-10T05:29:57;15.50;99.90
13856;DHT22;6998;53.608;9.958;2023-06-10T05:32:24;15.40;99.90
13856;DHT22;6998;53.608;9.958;2023-06-10T05:34:50;15.50;99.90
13856;DHT22;6998;53.608;9.958;2023-06-10T05:37:18;15.60;99.90
13856;DHT22;6998;53.608;9.958;2023-06-10T05:39:45;15.60;99.90
13856;DHT22;6998;53.608;9.958;2023-06-10T05:42:12;15.70;99.90
13856;DHT22;6998;53.608;9.958;2023-06-10T05:44:38;15.70;99.90
13856;DHT22;6998;53.608;9.958;2023-06-10T05:47:06;15.80;99.90
13856;DHT22;6998;53.608;9.958;2023-06-10T05:49:32;15.80;99.90
13856;DHT22;6998;53.608;9.958;2023-06-10T05:51:59;15.70;99.90
13856;DHT22;6998;53.608;9.958;2023-06-10T05:54:27;15.70;99.90
13856;DHT22;6998;53.608;9.958;2023-06-10T05:56:54;15.80;99.90
13856;DHT22;6998;53.608;9.958;2023-06-10T05:59:21;15.90;99.90
13856;DHT22;6998;53.608;9.958;2023-06-10T06:01:48;16.00;99.90
13856;DHT22;6998;53.608;9.958;2023-06-10T06:04:15;16.10;99.90
13856;DHT22;6998;53.608;9.958;2023-06-10T06:06:42;16.20;99.90
13856;DHT22;6998;53.608;9.958;2023-06-10T06:09:09;16.30;99.90
13856;DHT22;6998;53.608;9.958;2023-06-10T06:11:37;16.40;99.90
13856;DHT22;6998;53.608;9.958;2023-06-10T06:14:04;16.50;99.90
13856;DHT22;6998;53.608;9.958;2023-06-10T06:16:30;16.60;99.90
13856;DHT22;6998;53.608;9.958;2023-06-10T06:18:57;16.60;99.90
13856;DHT22;6998;53.608;9.958;2023-06-10T06:21:24;16.60;99.90
13856;DHT22;6998;53.608;9.958;2023-06-10T06:23:51;16.70;99.90
13856;DHT22;6998;53.608;9.958;2023-06-10T06:26:17;16.80;99.90
13856;DHT22;6998;53.608;9.958;2023-06-10T06:28:45;16.70;99.90
13856;DHT22;6998;53.608;9.958;2023-06-10T06:31:13;16.80;99.90
13856;DHT22;6998;53.608;9.958;2023-06-10T06:33:39;16.80;99.90
13856;DHT22;6998;53.608;9.958;2023-06-10T06:36:06;16.90;99.90
13856;DHT22;6998;53.608;9.958;2023-06-10T06:38:33;16.80;99.90
13856;DHT22;6998;53.608;9.958;2023-06-10T06:41:00;16.90;99.90
13856;DHT22;6998;53.608;9.958;2023-06-10T06:43:28;17.00;99.90
13856;DHT22;6998;53.608;9.958;2023-06-10T06:45:57;17.10;99.90
13856;DHT22;6998;53.608;9.958;2023-06-10T06:48:24;17.20;99.90
13856;DHT22;6998;53.608;9.958;2023-06-10T06:50:51;17.20;99.90
13856;DHT22;6998;53.608;9.958;2023-06-10T06:53:18;17.50;99.90
13856;DHT22;6998;53.608;9.958;2023-06-10T06:55:45;17.40;99.90
13856;DHT22;6998;53.608;9.958;2023-06-10T06:58:11;17.40;99.90
13856;DHT22;6998;53.608;9.958;2023-06-10T07:00:38;17.60;99.90
13856;DHT22;6998;53.608;9.958;2023-06-10T07:03:06;17.80;99.90
13856;DHT22;6998;53.608;9.958;2023-06-10T07:05:33;17.80;99.90
13856;DHT22;6998;53.608;9.958;2023-06-10T07:08:00;18.00;99.90
13856;DHT22;6998;53.608;9.958;2023-06-10T07:10:28;18.10;99.90
13856;DHT22;6998;53.608;9.958;2023-06-10T07:12:55;18.10;99.90
13856;DHT22;6998;53.608;9.958;2023-06-10T07:15:21;18.20;99.90
13856;DHT22;6998;53.608;9.958;2023-06-10T07:17:48;18.30;99.90
13856;DHT22;6998;53.608;9.958;2023-06-10T07:20:17;18.50;99.90
13856;DHT22;6998;53.608;9.958;2023-06-10T07:22:44;18.60;99.90
13856;DHT22;6998;53.608;9.958;2023-06-10T07:25:10;18.60;99.90
13856;DHT22;6998;53.608;9.958;2023-06-10T07:27:37;18.70;99.90
13856;DHT22;6998;53.608;9.958;2023-06-10T07:30:05;18.80;99.90
13856;DHT22;6998;53.608;9.958;2023-06-10T07:32:33;19.00;99.90
13856;DHT22;6998;53.608;9.958;2023-06-10T07:35:00;19.20;99.90
13856;DHT22;6998;53.608;9.958;2023-06-10T07:37:28;19.20;99.90
13856;DHT22;6998;53.608;9.958;2023-06-10T07:39:56;19.30;99.90
13856;DHT22;6998;53.608;9.958;2023-06-10T07:42:23;19.40;99.90
13856;DHT22;6998;53.608;9.958;2023-06-10T07:44:50;19.40;99.90
13856;DHT22;6998;53.608;9.958;2023-06-10T07:47:16;19.40;99.90
13856;DHT22;6998;53.608;9.958;2023-06-10T07:49:43;19.50;99.90
13856;DHT22;6998;53.608;9.958;2023-06-10T07:52:10;19.40;99.90
13856;DHT22;6998;53.608;9.958;2023-06-10T07:54:38;19.50;99.90
13856;DHT22;6998;53.608;9.958;2023-06-10T07:57:05;19.70;99.90
13856;DHT22;6998;53.608;9.958;2023-06-10T07:59:33;19.90;99.90
13856;DHT22;6998;53.608;9.958;2023-06-10T08:02:00;20.10;99.90
13856;DHT22;6998;53.608;9.958;2023-06-10T08:04:27;20.20;99.90
13856;DHT22;6998;53.608;9.958;2023-06-10T08:06:53;20.30;99.90
13856;DHT22;6998;53.608;9.958;2023-06-10T08:09:20;20.40;99.90
13856;DHT22;6998;53.608;9.958;2023-06-10T08:11:50;20.40;99.90
13856;DHT22;6998;53.608;9.958;2023-06-10T08:14:17;20.40;99.90
13856;DHT22;6998;53.608;9.958;2023-06-10T08:16:44;20.50;99.90
13856;DHT22;6998;53.608;9.958;2023-06-10T08:19:11;20.50;99.90
13856;DHT22;6998;53.608;9.958;2023-06-10T08:21:37;20.60;99.90
13856;DHT22;6998;53.608;9.958;2023-06-10T08:24:05;20.70;99.90
13856;DHT22;6998;53.608;9.958;2023-06-10T08:26:32;21.00;99.90
13856;DHT22;6998;53.608;9.958;2023-06-10T08:29:01;20.90;99.90
13856;DHT22;6998;53.608;9.958;2023-06-10T08:31:30;21.00;99.90
13856;DHT22;6998;53.608;9.958;2023-06-10T08:33:56;21.00;99.90
13856;DHT22;6998;53.608;9.958;2023-06-10T08:36:23;21.30;99.90
13856;DHT22;6998;53.608;9.958;2023-06-10T08:38:50;21.40;99.90
13856;DHT22;6998;53.608;9.958;2023-06-10T08:41:17;21.60;99.90
13856;DHT22;6998;53.608;9.958;2023-06-10T08:43:51;21.60;99.90
13856;DHT22;6998;53.608;9.958;2023-06-10T08:46:21;21.60;99.90
13856;DHT22;6998;53.608;9.958;2023-06-10T08:48:49;21.80;99.90
13856;DHT22;6998;53.608;9.958;2023-06-10T08:51:23;21.70;99.90
13856;DHT22;6998;53.608;9.958;2023-06-10T08:53:56;21.90;99.90
13856;DHT22;6998;53.608;9.958;2023-06-10T08:56:25;22.20;99.90
13856;DHT22;6998;53.608;9.958;2023-06-10T08:58:53;22.10;99.90
13856;DHT22;6998;53.608;9.958;2023-06-10T09:01:22;22.30;99.90
13856;DHT22;6998;53.608;9.958;2023-06-10T09:03:49;22.60;99.90
13856;DHT22;6998;53.608;9.958;2023-06-10T09:06:17;22.60;99.90
13856;DHT22;6998;53.608;9.958;2023-06-10T09:08:44;22.30;99.90
13856;DHT22;6998;53.608;9.958;2023-06-10T09:11:11;22.60;99.90
13856;DHT22;6998;53.608;9.958;2023-06-10T09:13:38;22.50;99.90
13856;DHT22;6998;53.608;9.958;2023-06-10T09:16:05;22.60;99.90
13856;DHT22;6998;53.608;9.958;2023-06-10T09:18:34;22.80;99.90
13856;DHT22;6998;53.608;9.958;2023-06-10T09:21:01;23.00;99.90
13856;DHT22;6998;53.608;9.958;2023-06-10T09:23:28;23.30;99.90
13856;DHT22;6998;53.608;9.958;2023-06-10T09:25:58;23.50;99.90
13856;DHT22;6998;53.608;9.958;2023-06-10T09:28:25;23.70;99.90
13856;DHT22;6998;53.608;9.958;2023-06-10T09:31:03;23.70;99.90
13856;DHT22;6998;53.608;9.958;2023-06-10T09:33:31;23.80;99.90
13856;DHT22;6998;53.608;9.958;2023-06-10T09:36:01;23.90;99.90
13856;DHT22;6998;53.608;9.958;2023-06-10T09:38:33;24.00;99.90
13856;DHT22;6998;53.608;9.958;2023-06-10T09:41:00;24.00;99.90
13856;DHT22;6998;53.608;9.958;2023-06-10T09:43:39;24.00;99.90
13856;DHT22;6998;53.608;9.958;2023-06-10T09:46:06;24.10;99.90
13856;DHT22;6998;53.608;9.958;2023-06-10T09:48:35;24.40;99.90
13856;DHT22;6998;53.608;9.958;2023-06-10T09:51:08;24.70;99.90
13856;DHT22;6998;53.608;9.958;2023-06-10T09:53:36;25.10;99.90
13856;DHT22;6998;53.608;9.958;2023-06-10T09:56:03;25.50;99.90
13856;DHT22;6998;53.608;9.958;2023-06-10T09:58:36;25.50;99.90
13856;DHT22;6998;53.608;9.958;2023-06-10T10:01:07;25.60;99.90
13856;DHT22;6998;53.608;9.958;2023-06-10T10:03:43;25.80;99.90
13856;DHT22;6998;53.608;9.958;2023-06-10T10:06:12;25.70;99.90
13856;DHT22;6998;53.608;9.958;2023-06-10T10:08:39;25.70;99.90
13856;DHT22;6998;53.608;9.958;2023-06-10T10:11:05;25.70;99.90
13856;DHT22;6998;53.608;9.958;2023-06-10T10:13:33;25.60;99.90
13856;DHT22;6998;53.608;9.958;2023-06-10T10:16:04;25.70;99.90
13856;DHT22;6998;53.608;9.958;2023-06-10T10:18:33;25.70;99.90
13856;DHT22;6998;53.608;9.958;2023-06-10T10:21:04;25.60;99.90
13856;DHT22;6998;53.608;9.958;2023-06-10T10:23:39;25.80;99.90
13856;DHT22;6998;53.608;9.958;2023-06-10T10:26:10;26.00;99.90
13856;DHT22;6998;53.608;9.958;2023-06-10T10:28:41;26.30;99.90
13856;DHT22;6998;53.608;9.958;2023-06-10T10:31:10;26.50;99.90
13856;DHT22;6998;53.608;9.958;2023-06-10T10:33:45;26.70;99.90
13856;DHT22;6998;53.608;9.958;2023-06-10T10:36:15;26.60;99.90
13856;DHT22;6998;53.608;9.958;2023-06-10T10:38:45;26.50;99.90
13856;DHT22;6998;53.608;9.958;2023-06-10T10:41:14;26.60;99.90
13856;DHT22;6998;53.608;9.958;2023-06-10T10:43:42;26.60;99.90
13856;DHT22;6998;53.608;9.958;2023-06-10T10:46:12;26.80;99.90
13856;DHT22;6998;53.608;9.958;2023-06-10T10:48:39;27.00;99.90
13856;DHT22;6998;53.608;9.958;2023-06-10T10:51:06;27.00;99.90
13856;DHT22;6998;53.608;9.958;2023-06-10T10:53:33;27.20;99.90
13856;DHT22;6998;53.608;9.958;2023-06-10T10:56:05;27.20;99.90
13856;DHT22;6998;53.608;9.958;2023-06-10T10:58:32;26.90;99.90
13856;DHT22;6998;53.608;9.958;2023-06-10T11:01:16;26.70;99.90
13856;DHT22;6998;53.608;9.958;2023-06-10T11:03:45;26.80;99.90
13856;DHT22;6998;53.608;9.958;2023-06-10T11:06:13;26.70;99.90
13856;DHT22;6998;53.608;9.958;2023-06-10T11:08:49;26.80;99.90
13856;DHT22;6998;53.608;9.958;2023-06-10T11:11:21;26.50;99.90
13856;DHT22;6998;53.608;9.958;2023-06-10T11:14:07;26.60;99.90
13856;DHT22;6998;53.608;9.958;2023-06-10T11:16:39;26.70;99.90
13856;DHT22;6998;53.608;9.958;2023-06-10T11:19:07;26.50;99.90
13856;DHT22;6998;53.608;9.958;2023-06-10T11:21:45;26.30;99.90
13856;DHT22;6998;53.608;9.958;2023-06-10T11:24:23;26.40;99.90
13856;DHT22;6998;53.608;9.958;2023-06-10T11:26:51;26.60;99.90
13856;DHT22;6998;53.608;9.958;2023-06-10T11:29:18;26.60;99.90
13856;DHT22;6998;53.608;9.958;2023-06-10T11:31:49;26.70;99.90
13856;DHT22;6998;53.608;9.958;2023-06-10T11:34:21;26.90;99.90
13856;DHT22;6998;53.608;9.958;2023-06-10T11:36:51;27.00;99.90
13856;DHT22;6998;53.608;9.958;2023-06-10T11:39:19;27.20;99.90
13856;DHT22;6998;53.608;9.958;2023-06-10T11:41:46;27.00;99.90
13856;DHT22;6998;53.608;9.958;2023-06-10T11:44:15;26.90;99.90
13856;DHT22;6998;53.608;9.958;2023-06-10T11:46:42;26.80;99.90
13856;DHT22;6998;53.608;9.958;2023-06-10T11:49:09;27.10;99.90
13856;DHT22;6998;53.608;9.958;2023-06-10T11:51:36;27.20;99.90
13856;DHT22;6998;53.608;9.958;2023-06-10T11:54:04;27.00;99.90
13856;DHT22;6998;53.608;9.958;2023-06-10T11:56:32;27.20;99.90
13856;DHT22;6998;53.608;9.958;2023-06-10T11:59:00;27.10;99.90
13856;DHT22;6998;53.608;9.958;2023-06-10T12:01:32;26.70;99.90
13856;DHT22;6998;53.608;9.958;2023-06-10T12:04:00;26.70;99.90
13856;DHT22;6998;53.608;9.958;2023-06-10T12:06:27;26.60;99.90
13856;DHT22;6998;53.608;9.958;2023-06-10T12:09:03;26.90;99.90
13856;DHT22;6998;53.608;9.958;2023-06-10T12:11:30;27.00;99.90
13856;DHT22;6998;53.608;9.958;2023-06-10T12:13:57;26.90;99.90
13856;DHT22;6998;53.608;9.958;2023-06-10T12:16:24;26.80;99.90
13856;DHT22;6998;53.608;9.958;2023-06-10T12:19:01;27.10;99.90
13856;DHT22;6998;53.608;9.958;2023-06-10T12:21:28;27.20;99.90
13856;DHT22;6998;53.608;9.958;2023-06-10T12:24:05;27.20;99.90
13856;DHT22;6998;53.608;9.958;2023-06-10T12:26:40;27.40;99.90
13856;DHT22;6998;53.608;9.958;2023-06-10T12:29:19;27.50;99.90
13856;DHT22;6998;53.608;9.958;2023-06-10T12:31:59;27.50;99.90
13856;DHT22;6998;53.608;9.958;2023-06-10T12:34:32;27.50;99.90
13856;DHT22;6998;53.608;9.958;2023-06-10T12:36:59;27.70;99.90
13856;DHT22;6998;53.608;9.958;2023-06-10T12:39:26;27.80;99.90
13856;DHT22;6998;53.608;9.958;2023-06-10T12:41:54;28.00;99.90
13856;DHT22;6998;53.608;9.958;2023-06-10T12:44:29;28.40;99.90
13856;DHT22;6998;53.608;9.958;2023-06-10T12:46:56;28.50;99.90
13856;DHT22;6998;53.608;9.958;2023-06-10T12:49:23;28.50;99.90
13856;DHT22;6998;53.608;9.958;2023-06-10T12:51:51;28.70;99.90
13856;DHT22;6998;53.608;9.958;2023-06-10T12:54:18;29.00;99.90
13856;DHT22;6998;53.608;9.958;2023-06-10T12:56:45;28.90;99.90
13856;DHT22;6998;53.608;9.958;2023-06-10T12:59:12;29.10;99.90
13856;DHT22;6998;53.608;9.958;2023-06-10T13:01:38;28.60;99.90
13856;DHT22;6998;53.608;9.958;2023-06-10T13:04:05;28.30;99.90
13856;DHT22;6998;53.608;9.958;2023-06-10T13:06:32;28.20;99.90
13856;DHT22;6998;53.608;9.958;2023-06-10T13:09:05;28.40;99.90
13856;DHT22;6998;53.608;9.958;2023-06-10T13:11:33;28.80;99.90
13856;DHT22;6998;53.608;9.958;2023-06-10T13:14:00;28.90;99.90
13856;DHT22;6998;53.608;9.958;2023-06-10T13:16:28;28.90;99.90
13856;DHT22;6998;53.608;9.958;2023-06-10T13:18:55;28.70;99.90
13856;DHT22;6998;53.608;9.958;2023-06-10T13:21:24;28.80;99.90
13856;DHT22;6998;53.608;9.958;2023-06-10T13:23:51;28.80;99.90
13856;DHT22;6998;53.608;9.958;2023-06-10T13:26:19;28.90;99.90
13856;DHT22;6998;53.608;9.958;2023-06-10T13:28:47;29.10;99.90
13856;DHT22;6998;53.608;9.958;2023-06-10T13:31:13;29.60;99.90
13856;DHT22;6998;53.608;9.958;2023-06-10T13:33:40;29.40;99.90
13856;DHT22;6998;53.608;9.958;2023-06-10T13:36:09;29.10;99.90
13856;DHT22;6998;53.608;9.958;2023-06-10T13:38:35;29.00;99.90
13856;DHT22;6998;53.608;9.958;2023-06-10T13:41:02;28.80;99.90
13856;DHT22;6998;53.608;9.958;2023-06-10T13:43:30;28.80;99.90
13856;DHT22;6998;53.608;9.958;2023-06-10T13:45:57;28.90;99.90
13856;DHT22;6998;53.608;9.958;2023-06-10T13:48:23;29.00;99.90
13856;DHT22;6998;53.608;9.958;2023-06-10T13:50:50;28.90;99.90
13856;DHT22;6998;53.608;9.958;2023-06-10T13:53:17;28.90;99.90
13856;DHT22;6998;53.608;9.958;2023-06-10T13:55:44;28.90;99.90
13856;DHT22;6998;53.608;9.958;2023-06-10T13:58:11;29.10;99.90
13856;DHT22;6998;53.608;9.958;2023-06-10T14:00:39;29.00;99.90
13856;DHT22;6998;53.608;9.958;2023-06-10T14:03:05;28.70;99.90
13856;DHT22;6998;53.608;9.958;2023-06-10T14:05:32;28.50;99.90
13856;DHT22;6998;53.608;9.958;2023-06-10T14:08:00;28.50;99.90
13856;DHT22;6998;53.608;9.958;2023-06-10T14:10:26;28.40;99.90
13856;DHT22;6998;53.608;9.958;2023-06-10T14:12:53;28.70;99.90
13856;DHT22;6998;53.608;9.958;2023-06-10T14:15:20;28.60;99.90
13856;DHT22;6998;53.608;9.958;2023-06-10T14:17:48;28.20;99.90
13856;DHT22;6998;53.608;9.958;2023-06-10T14:20:15;28.00;99.90
13856;DHT22;6998;53.608;9.958;2023-06-10T14:22:42;27.90;99.90
13856;DHT22;6998;53.608;9.958;2023-06-10T14:25:08;27.90;99.90
13856;DHT22;6998;53.608;9.958;2023-06-10T14:27:36;27.90;99.90
13856;DHT22;6998;53.608;9.958;2023-06-10T14:30:04;28.20;99.90
13856;DHT22;6998;53.608;9.958;2023-06-10T14:32:31;28.30;99.90
13856;DHT22;6998;53.608;9.958;2023-06-10T14:34:59;28.20;99.90
13856;DHT22;6998;53.608;9.958;2023-06-10T14:37:26;28.00;99.90
13856;DHT22;6998;53.608;9.958;2023-06-10T14:39:52;27.90;99.90
13856;DHT22;6998;53.608;9.958;2023-06-10T14:42:19;28.10;99.90
13856;DHT22;6998;53.608;9.958;2023-06-10T14:44:46;28.20;99.90
13856;DHT22;6998;53.608;9.958;2023-06-10T14:47:13;28.20;99.90
13856;DHT22;6998;53.608;9.958;2023-06-10T14:49:39;28.30;99.90
13856;DHT22;6998;53.608;9.958;2023-06-10T14:52:09;28.30;99.90
13856;DHT22;6998;53.608;9.958;2023-06-10T14:54:36;28.30;99.90
13856;DHT22;6998;53.608;9.958;2023-06-10T14:57:03;28.40;99.90
13856;DHT22;6998;53.608;9.958;2023-06-10T14:59:31;28.40;99.90
13856;DHT22;6998;53.608;9.958;2023-06-10T15:01:58;28.30;99.90
13856;DHT22;6998;53.608;9.958;2023-06-10T15:04:26;28.20;99.90
13856;DHT22;6998;53.608;9.958;2023-06-10T15:06:52;27.90;99.90
13856;DHT22;6998;53.608;9.958;2023-06-10T15:09:20;28.10;99.90
13856;DHT22;6998;53.608;9.958;2023-06-10T15:11:47;28.20;99.90
13856;DHT22;6998;53.608;9.958;2023-06-10T15:14:14;28.20;99.90
13856;DHT22;6998;53.608;9.958;2023-06-10T15:16:41;28.10;99.90
13856;DHT22;6998;53.608;9.958;2023-06-10T15:19:07;27.90;99.90
13856;DHT22;6998;53.608;9.958;2023-06-10T15:21:35;27.90;99.90
13856;DHT22;6998;53.608;9.958;2023-06-10T15:24:01;27.80;99.90
13856;DHT22;6998;53.608;9.958;2023-06-10T15:26:29;27.90;99.90
13856;DHT22;6998;53.608;9.958;2023-06-10T15:28:56;27.90;99.90
13856;DHT22;6998;53.608;9.958;2023-06-10T15:31:23;28.00;99.90
13856;DHT22;6998;53.608;9.958;2023-06-10T15:33:50;27.80;99.90
13856;DHT22;6998;53.608;9.958;2023-06-10T15:36:16;27.80;99.90
13856;DHT22;6998;53.608;9.958;2023-06-10T15:38:43;27.60;99.90
13856;DHT22;6998;53.608;9.958;2023-06-10T15:41:11;27.40;99.90
13856;DHT22;6998;53.608;9.958;2023-06-10T15:43:39;27.30;99.90
13856;DHT22;6998;53.608;9.958;2023-06-10T15:46:07;27.40;99.90
13856;DHT22;6998;53.608;9.958;2023-06-10T15:48:34;27.60;99.90
13856;DHT22;6998;53.608;9.958;2023-06-10T15:51:00;27.40;99.90